Nexoe Maersk — OVYB2 — position and weather

sailwx.info

Track history (hours):
 
Tides and Currents Weather Stations Pressure Air Temp Water Temp Dewpoint Dewpoint Depression Visibility Wind Speed Wind Dir Waves Ship Positions

Nexoe Maersk

Last reported at 2017-Nov-19 18:50 UTC. Time now 2017-Nov-20 23:05 UTC.
Position N 36°02' W 005°08'.

Length 198 m; beam 30 m; draft 11 m.

Type: Cargo ship. MMSI: 219955000.

Date/timePositionNaut miles runAvg speedWind from/ knotsBaromVisibWave heightAir tempDewpointWater temp
2017-Nov-19 18:50N 36°02' W 005°08'515.7
2017-Nov-19 18:31N 36°02' W 005°14'714.7
2017-Nov-19 18:00N 36°04' W 005°23'611.2
2017-Nov-19 17:30N 36°09' W 005°26'0 0.5
2017-Nov-19 16:38N 36°09' W 005°26'0 0.0
2017-Nov-19 16:16N 36°09' W 005°26'0 0.0
2017-Nov-19 15:58N 36°09' W 005°26'0 0.0
2017-Nov-19 15:25N 36°09' W 005°26'0 0.0
2017-Nov-19 14:43N 36°09' W 005°26'0 0.0
2017-Nov-19 14:22N 36°09' W 005°26'0 0.0
2017-Nov-19 13:58N 36°09' W 005°26'0 0.0
2017-Nov-19 13:28N 36°09' W 005°26'0 0.0
2017-Nov-19 12:46N 36°09' W 005°26'0 0.0
2017-Nov-19 08:58N 36°09' W 005°26'0 0.0
2017-Nov-19 08:25N 36°09' W 005°26'0 0.0
2017-Nov-19 06:13N 36°09' W 005°26'0 0.0
2017-Nov-19 05:58N 36°09' W 005°26'0 0.0
2017-Nov-19 01:37N 36°09' W 005°26'0 0.0
2017-Nov-19 01:28N 36°09' W 005°26'0 0.0
2017-Nov-19 00:58N 36°09' W 005°26'0 0.0
2017-Nov-19 00:28N 36°09' W 005°26'0 0.0
2017-Nov-18 23:48N 36°09' W 005°26'0 1.0
2017-Nov-18 23:30N 36°09' W 005°26'3 5.5
2017-Nov-18 23:00N 36°07' W 005°24'4 8.4
2017-Nov-18 22:30N 36°04' W 005°21'4 7.6
2017-Nov-18 22:00N 36°05' W 005°16'4 8.3
2017-Nov-18 21:30N 36°09' W 005°13'2 3.5
2017-Nov-18 21:00N 36°10' W 005°11'1 1.4
2017-Nov-18 20:30N 36°10' W 005°11'1 1.4
2017-Nov-18 19:59N 36°09' W 005°10'2 0.5
2017-Nov-18 16:35N 36°09' W 005°12'0 0.9
2017-Nov-18 16:30N 36°09' W 005°12'1 0.9
2017-Nov-18 15:26N 36°08' W 005°12'0 0.6
2017-Nov-18 15:00N 36°08' W 005°12'0 0.8
2017-Nov-18 14:30N 36°08' W 005°12'2 3.6
2017-Nov-18 14:00N 36°09' W 005°11'2 0.7
2017-Nov-18 11:00N 36°08' W 005°13'1 1.0
2017-Nov-18 10:19N 36°08' W 005°12'0 1.2
2017-Nov-18 09:55N 36°08' W 005°12'2 3.3
2017-Nov-18 09:25N 36°07' W 005°13'1 2.0
2017-Nov-18 09:00N 36°07' W 005°12'1 1.5
2017-Nov-18 08:30N 36°08' W 005°11'1 1.1
2017-Nov-18 07:36N 36°08' W 005°10'2 1.7
2017-Nov-18 06:36N 36°07' W 005°12'0 1.1
2017-Nov-18 06:31N 36°07' W 005°12'0 0.9
2017-Nov-18 06:01N 36°07' W 005°11'0 0.5
2017-Nov-18 05:31N 36°07' W 005°11'0 0.6
2017-Nov-18 05:01N 36°07' W 005°11'0 0.5
2017-Nov-18 04:31N 36°08' W 005°10'2 3.7
2017-Nov-18 04:01N 36°09' W 005°11'1 1.6
2017-Nov-18 03:29N 36°10' W 005°12'1 1.1
2017-Nov-18 03:01N 36°09' W 005°12'1 1.5
2017-Nov-18 02:22N 36°08' W 005°11'1 2.6
2017-Nov-18 02:01N 36°07' W 005°11'1 1.1
2017-Nov-18 01:31N 36°07' W 005°12'0 0.7
2017-Nov-18 01:01N 36°07' W 005°11'0 0.7
2017-Nov-18 00:30N 36°07' W 005°11'0 0.8
2017-Nov-18 00:00N 36°07' W 005°11'0 0.9
2017-Nov-17 23:31N 36°07' W 005°10'0 0.6
2017-Nov-17 23:00N 36°07' W 005°10'1 1.4
2017-Nov-17 22:30N 36°08' W 005°09'2 2.6
2017-Nov-17 21:46N 36°06' W 005°10'2 5.1
2017-Nov-17 21:28N 36°06' W 005°12'0 0.6
2017-Nov-17 21:00N 36°06' W 005°12'1 1.3
2017-Nov-17 20:30N 36°07' W 005°11'1 1.7
2017-Nov-17 20:01N 36°07' W 005°11'1 1.0
2017-Nov-17 19:05N 36°07' W 005°10'0 1.0
2017-Nov-17 19:00N 36°07' W 005°10'1 0.2
2017-Nov-17 15:20N 36°07' W 005°10'0 1.2
2017-Nov-17 14:59N 36°07' W 005°09'1 1.8
2017-Nov-17 14:29N 36°06' W 005°09'1 0.7
2017-Nov-17 13:37N 36°06' W 005°10'0 0.1
2017-Nov-17 13:15N 36°06' W 005°10'0 0.7
2017-Nov-17 12:45N 36°05' W 005°10'4 7.4
2017-Nov-17 12:16N 36°03' W 005°14'311.6
2017-Nov-17 12:00N 36°01' W 005°16'611.6
2017-Nov-17 11:30N 35°59' W 005°23'611.4
2017-Nov-17 11:00N 35°57' W 005°30'  
2017-Nov-12 19:24N 37°02' W 001°19'410.3
2017-Nov-12 19:00N 37°04' W 001°15'510.3
2017-Nov-12 18:29N 37°08' W 001°10'510.2
2017-Nov-12 17:58N 37°12' W 001°05'510.1
2017-Nov-12 17:30N 37°15' W 001°01'510.2
2017-Nov-12 17:00N 37°18' W 000°56'510.1
2017-Nov-12 16:30N 37°22' W 000°52'510.1
2017-Nov-12 16:00N 37°25' W 000°47'5 9.8
2017-Nov-12 15:30N 37°29' W 000°42'5 9.6
2017-Nov-12 15:00N 37°32' W 000°38'5 9.6
2017-Nov-12 14:30N 37°35' W 000°33'5 9.7
2017-Nov-12 14:00N 37°39' W 000°30'5 9.7
2017-Nov-12 13:30N 37°43' W 000°27'510.0
2017-Nov-12 13:00N 37°48' W 000°24'5 9.9
2017-Nov-12 12:29N 37°51' W 000°19'5 9.9
2017-Nov-12 11:59N 37°55' W 000°16'510.0
2017-Nov-12 11:30N 37°59' W 000°12'510.1
2017-Nov-12 10:59N 38°04' W 000°09'194 4.2
2017-Nov-10 12:24N 40°55' E 001°51'511.9
2017-Nov-10 12:00N 40°59' E 001°54'612.0
2017-Nov-10 11:30N 41°04' E 001°58'612.0
2017-Nov-10 11:00N 41°09' E 002°03'611.6
2017-Nov-10 10:31N 41°13' E 002°07'510.4
2017-Nov-10 10:00N 41°18' E 002°10'0 0.0
2017-Nov-10 00:09N 41°18' E 002°11'3 2.0
2017-Nov-09 22:48N 41°16' E 002°11'3 8.5
2017-Nov-09 22:30N 41°13' E 002°11'2 3.6
2017-Nov-09 22:00N 41°11' E 002°11'1 2.7
2017-Nov-09 21:30N 41°10' E 002°09'0 0.5
2017-Nov-09 21:00N 41°10' E 002°10'0 0.9
2017-Nov-09 20:30N 41°11' E 002°10'0 0.5
2017-Nov-09 19:26N 41°11' E 002°11'1 1.2
2017-Nov-09 18:59N 41°10' E 002°10'  
Track history (hours):
 
Tides and Currents Weather Stations Pressure Air Temp Water Temp Dewpoint Dewpoint Depression Visibility Wind Speed Wind Dir Waves Ship Positions

Nexoe Maersk

Last reported at 2017-Nov-19 18:50 UTC. Time now 2017-Nov-20 23:05 UTC.
Position N 36°02' W 005°08'.

Length 198 m; beam 30 m; draft 11 m.

Type: Cargo ship. MMSI: 219955000.

Date/timePositionNaut miles runAvg speedWind from/ knotsBaromVisibWave heightAir tempDewpointWater temp
2017-Nov-19 18:50N 36°02' W 005°08'515.7
2017-Nov-19 18:31N 36°02' W 005°14'714.7
2017-Nov-19 18:00N 36°04' W 005°23'611.2
2017-Nov-19 17:30N 36°09' W 005°26'0 0.5
2017-Nov-19 16:38N 36°09' W 005°26'0 0.0
2017-Nov-19 16:16N 36°09' W 005°26'0 0.0
2017-Nov-19 15:58N 36°09' W 005°26'0 0.0
2017-Nov-19 15:25N 36°09' W 005°26'0 0.0
2017-Nov-19 14:43N 36°09' W 005°26'0 0.0
2017-Nov-19 14:22N 36°09' W 005°26'0 0.0
2017-Nov-19 13:58N 36°09' W 005°26'0 0.0
2017-Nov-19 13:28N 36°09' W 005°26'0 0.0
2017-Nov-19 12:46N 36°09' W 005°26'0 0.0
2017-Nov-19 08:58N 36°09' W 005°26'0 0.0
2017-Nov-19 08:25N 36°09' W 005°26'0 0.0
2017-Nov-19 06:13N 36°09' W 005°26'0 0.0
2017-Nov-19 05:58N 36°09' W 005°26'0 0.0
2017-Nov-19 01:37N 36°09' W 005°26'0 0.0
2017-Nov-19 01:28N 36°09' W 005°26'0 0.0
2017-Nov-19 00:58N 36°09' W 005°26'0 0.0
2017-Nov-19 00:28N 36°09' W 005°26'0 0.0
2017-Nov-18 23:48N 36°09' W 005°26'0 1.0
2017-Nov-18 23:30N 36°09' W 005°26'3 5.5
2017-Nov-18 23:00N 36°07' W 005°24'4 8.4
2017-Nov-18 22:30N 36°04' W 005°21'4 7.6
2017-Nov-18 22:00N 36°05' W 005°16'4 8.3
2017-Nov-18 21:30N 36°09' W 005°13'2 3.5
2017-Nov-18 21:00N 36°10' W 005°11'1 1.4
2017-Nov-18 20:30N 36°10' W 005°11'1 1.4
2017-Nov-18 19:59N 36°09' W 005°10'2 0.5
2017-Nov-18 16:35N 36°09' W 005°12'0 0.9
2017-Nov-18 16:30N 36°09' W 005°12'1 0.9
2017-Nov-18 15:26N 36°08' W 005°12'0 0.6
2017-Nov-18 15:00N 36°08' W 005°12'0 0.8
2017-Nov-18 14:30N 36°08' W 005°12'2 3.6
2017-Nov-18 14:00N 36°09' W 005°11'2 0.7
2017-Nov-18 11:00N 36°08' W 005°13'1 1.0
2017-Nov-18 10:19N 36°08' W 005°12'0 1.2
2017-Nov-18 09:55N 36°08' W 005°12'2 3.3
2017-Nov-18 09:25N 36°07' W 005°13'1 2.0
2017-Nov-18 09:00N 36°07' W 005°12'1 1.5
2017-Nov-18 08:30N 36°08' W 005°11'1 1.1
2017-Nov-18 07:36N 36°08' W 005°10'2 1.7
2017-Nov-18 06:36N 36°07' W 005°12'0 1.1
2017-Nov-18 06:31N 36°07' W 005°12'0 0.9
2017-Nov-18 06:01N 36°07' W 005°11'0 0.5
2017-Nov-18 05:31N 36°07' W 005°11'0 0.6
2017-Nov-18 05:01N 36°07' W 005°11'0 0.5
2017-Nov-18 04:31N 36°08' W 005°10'2 3.7
2017-Nov-18 04:01N 36°09' W 005°11'1 1.6
2017-Nov-18 03:29N 36°10' W 005°12'1 1.1
2017-Nov-18 03:01N 36°09' W 005°12'1 1.5
2017-Nov-18 02:22N 36°08' W 005°11'1 2.6
2017-Nov-18 02:01N 36°07' W 005°11'1 1.1
2017-Nov-18 01:31N 36°07' W 005°12'0 0.7
2017-Nov-18 01:01N 36°07' W 005°11'0 0.7
2017-Nov-18 00:30N 36°07' W 005°11'0 0.8
2017-Nov-18 00:00N 36°07' W 005°11'0 0.9
2017-Nov-17 23:31N 36°07' W 005°10'0 0.6
2017-Nov-17 23:00N 36°07' W 005°10'1 1.4
2017-Nov-17 22:30N 36°08' W 005°09'2 2.6
2017-Nov-17 21:46N 36°06' W 005°10'2 5.1
2017-Nov-17 21:28N 36°06' W 005°12'0 0.6
2017-Nov-17 21:00N 36°06' W 005°12'1 1.3
2017-Nov-17 20:30N 36°07' W 005°11'1 1.7
2017-Nov-17 20:01N 36°07' W 005°11'1 1.0
2017-Nov-17 19:05N 36°07' W 005°10'0 1.0
2017-Nov-17 19:00N 36°07' W 005°10'1 0.2
2017-Nov-17 15:20N 36°07' W 005°10'0 1.2
2017-Nov-17 14:59N 36°07' W 005°09'1 1.8
2017-Nov-17 14:29N 36°06' W 005°09'1 0.7
2017-Nov-17 13:37N 36°06' W 005°10'0 0.1
2017-Nov-17 13:15N 36°06' W 005°10'0 0.7
2017-Nov-17 12:45N 36°05' W 005°10'4 7.4
2017-Nov-17 12:16N 36°03' W 005°14'311.6
2017-Nov-17 12:00N 36°01' W 005°16'611.6
2017-Nov-17 11:30N 35°59' W 005°23'611.4
2017-Nov-17 11:00N 35°57' W 005°30'  
2017-Nov-12 19:24N 37°02' W 001°19'410.3
2017-Nov-12 19:00N 37°04' W 001°15'510.3
2017-Nov-12 18:29N 37°08' W 001°10'510.2
2017-Nov-12 17:58N 37°12' W 001°05'510.1
2017-Nov-12 17:30N 37°15' W 001°01'510.2
2017-Nov-12 17:00N 37°18' W 000°56'510.1
2017-Nov-12 16:30N 37°22' W 000°52'510.1
2017-Nov-12 16:00N 37°25' W 000°47'5 9.8
2017-Nov-12 15:30N 37°29' W 000°42'5 9.6
2017-Nov-12 15:00N 37°32' W 000°38'5 9.6
2017-Nov-12 14:30N 37°35' W 000°33'5 9.7
2017-Nov-12 14:00N 37°39' W 000°30'5 9.7
2017-Nov-12 13:30N 37°43' W 000°27'510.0
2017-Nov-12 13:00N 37°48' W 000°24'5 9.9
2017-Nov-12 12:29N 37°51' W 000°19'5 9.9
2017-Nov-12 11:59N 37°55' W 000°16'510.0
2017-Nov-12 11:30N 37°59' W 000°12'510.1
2017-Nov-12 10:59N 38°04' W 000°09'194 4.2
2017-Nov-10 12:24N 40°55' E 001°51'511.9
2017-Nov-10 12:00N 40°59' E 001°54'612.0
2017-Nov-10 11:30N 41°04' E 001°58'612.0
2017-Nov-10 11:00N 41°09' E 002°03'611.6
2017-Nov-10 10:31N 41°13' E 002°07'510.4
2017-Nov-10 10:00N 41°18' E 002°10'0 0.0
2017-Nov-10 00:09N 41°18' E 002°11'3 2.0
2017-Nov-09 22:48N 41°16' E 002°11'3 8.5
2017-Nov-09 22:30N 41°13' E 002°11'2 3.6
2017-Nov-09 22:00N 41°11' E 002°11'1 2.7
2017-Nov-09 21:30N 41°10' E 002°09'0 0.5
2017-Nov-09 21:00N 41°10' E 002°10'0 0.9
2017-Nov-09 20:30N 41°11' E 002°10'0 0.5
2017-Nov-09 19:26N 41°11' E 002°11'1 1.2
2017-Nov-09 18:59N 41°10' E 002°10'  

Dump ship's entire track history